SAS335 ESSA-BGSF
Flight info
| Callsign | SAS335 |
|---|---|
| Flight time | N/A |
| Altitude | 38000 |
| Route | ARS N623 VALDI/M077F380 DCT KFV DCT DA UW28 SF |
| Aircraft | B736/M-SDE2E3FGHIRWXY/LB1 |
Departure
| Time | N/A |
|---|---|
| Airport | Stockholm-Arlanda Airport (ESSA) |
Arrival
| Time | 2026-04-18 12:42 |
|---|---|
| Airport | Kangerlussuaq International Airport (BGSF) |
| Time | Latitude | Longitude | Altitude | Speed | Heading |
|---|---|---|---|---|---|
| 2026-04-18 08:29 | 59.91059 | 13.53922 | 38248 ft | 434 kts | 280° |
| 2026-04-18 08:30 | 59.92166 | 13.42089 | 38236 ft | 434 kts | 279° |
| 2026-04-18 08:30 | 59.93431 | 13.30337 | 38243 ft | 434 kts | 284° |
| 2026-04-18 08:31 | 59.95179 | 13.18809 | 38238 ft | 434 kts | 286° |
| 2026-04-18 08:31 | 59.96976 | 13.07307 | 38242 ft | 434 kts | 285° |
| 2026-04-18 08:32 | 59.98730 | 12.95771 | 38241 ft | 434 kts | 285° |
| 2026-04-18 08:32 | 60.00451 | 12.84198 | 38235 ft | 434 kts | 285° |
| 2026-04-18 08:33 | 60.02153 | 12.72606 | 38236 ft | 435 kts | 285° |
| 2026-04-18 08:33 | 60.03848 | 12.60973 | 38237 ft | 436 kts | 284° |
| 2026-04-18 08:34 | 60.05537 | 12.49294 | 38229 ft | 437 kts | 284° |
| 2026-04-18 08:34 | 60.07218 | 12.37599 | 38231 ft | 437 kts | 284° |
| 2026-04-18 08:35 | 60.08889 | 12.25889 | 38223 ft | 438 kts | 284° |
| 2026-04-18 08:35 | 60.10554 | 12.14138 | 38213 ft | 438 kts | 284° |
| 2026-04-18 08:36 | 60.12197 | 12.02456 | 38217 ft | 438 kts | 284° |
| 2026-04-18 08:36 | 60.13838 | 11.90700 | 38221 ft | 439 kts | 284° |
| 2026-04-18 08:37 | 60.15477 | 11.78875 | 38208 ft | 439 kts | 283° |
| 2026-04-18 08:37 | 60.17104 | 11.67048 | 38210 ft | 439 kts | 283° |
| 2026-04-18 08:38 | 60.18721 | 11.55202 | 38209 ft | 440 kts | 283° |
| 2026-04-18 08:38 | 60.20330 | 11.43331 | 38211 ft | 440 kts | 283° |
| 2026-04-18 08:39 | 60.21930 | 11.31437 | 38215 ft | 441 kts | 283° |
| 2026-04-18 08:39 | 60.23520 | 11.19518 | 38216 ft | 441 kts | 283° |
| 2026-04-18 08:40 | 60.25102 | 11.07575 | 38212 ft | 442 kts | 283° |
| 2026-04-18 08:40 | 60.26674 | 10.95605 | 38212 ft | 443 kts | 283° |
| 2026-04-18 08:41 | 60.28240 | 10.83597 | 38209 ft | 443 kts | 282° |
| 2026-04-18 08:41 | 60.29795 | 10.71572 | 38202 ft | 444 kts | 282° |
| 2026-04-18 08:42 | 60.31343 | 10.59510 | 38205 ft | 445 kts | 282° |
| 2026-04-18 08:42 | 60.32883 | 10.47411 | 38192 ft | 445 kts | 282° |
| 2026-04-18 08:43 | 60.34405 | 10.35361 | 38189 ft | 446 kts | 282° |
| 2026-04-18 08:43 | 60.35925 | 10.23220 | 38198 ft | 446 kts | 282° |
| 2026-04-18 08:44 | 60.37439 | 10.11033 | 38190 ft | 448 kts | 282° |
| 2026-04-18 08:44 | 60.38947 | 9.98791 | 38196 ft | 450 kts | 282° |
| 2026-04-18 08:45 | 60.40449 | 9.86495 | 38183 ft | 450 kts | 281° |
| 2026-04-18 08:45 | 60.41938 | 9.74208 | 38187 ft | 449 kts | 281° |
| 2026-04-18 08:46 | 60.43412 | 9.61935 | 38187 ft | 449 kts | 281° |
| 2026-04-18 08:46 | 60.44873 | 9.49664 | 38190 ft | 448 kts | 281° |
| 2026-04-18 08:47 | 60.46320 | 9.37400 | 38164 ft | 448 kts | 281° |
| 2026-04-18 08:47 | 60.47758 | 9.25113 | 38188 ft | 447 kts | 281° |
| 2026-04-18 08:48 | 60.49182 | 9.12838 | 38172 ft | 447 kts | 281° |
| 2026-04-18 08:48 | 60.50593 | 9.00567 | 38177 ft | 447 kts | 281° |
| 2026-04-18 08:49 | 60.51992 | 8.88283 | 38175 ft | 447 kts | 280° |
| 2026-04-18 08:49 | 60.53381 | 8.75983 | 38177 ft | 447 kts | 280° |
| 2026-04-18 08:50 | 60.54763 | 8.63639 | 38181 ft | 448 kts | 280° |
| 2026-04-18 08:50 | 60.56134 | 8.51274 | 38183 ft | 449 kts | 280° |
| 2026-04-18 08:51 | 60.57497 | 8.38864 | 38177 ft | 450 kts | 279° |
| 2026-04-18 08:51 | 60.58851 | 8.26434 | 38177 ft | 450 kts | 279° |
| 2026-04-18 08:52 | 60.60195 | 8.13970 | 38157 ft | 451 kts | 279° |
| 2026-04-18 08:52 | 60.61528 | 8.01493 | 38167 ft | 451 kts | 279° |
| 2026-04-18 08:53 | 60.62850 | 7.88995 | 38149 ft | 452 kts | 279° |
| 2026-04-18 08:53 | 60.64161 | 7.76485 | 38147 ft | 452 kts | 279° |
| 2026-04-18 08:54 | 60.65461 | 7.63957 | 38138 ft | 452 kts | 279° |
| 2026-04-18 08:54 | 60.66752 | 7.51396 | 38130 ft | 453 kts | 279° |
| 2026-04-18 08:55 | 60.68024 | 7.38893 | 38110 ft | 453 kts | 279° |
| 2026-04-18 08:55 | 60.69293 | 7.26295 | 38107 ft | 454 kts | 278° |
| 2026-04-18 08:56 | 60.70551 | 7.13674 | 38097 ft | 454 kts | 278° |
| 2026-04-18 08:56 | 60.71798 | 7.01040 | 38074 ft | 454 kts | 278° |
| 2026-04-18 08:57 | 60.73448 | 6.84114 | 38069 ft | 454 kts | 278° |
| 2026-04-18 08:57 | 60.74666 | 6.71464 | 38064 ft | 454 kts | 278° |
| 2026-04-18 08:58 | 60.75864 | 6.58900 | 38074 ft | 453 kts | 278° |
| 2026-04-18 08:58 | 60.77058 | 6.46237 | 38077 ft | 453 kts | 278° |
| 2026-04-18 08:59 | 60.78238 | 6.33580 | 38076 ft | 453 kts | 277° |
| 2026-04-18 08:59 | 60.79405 | 6.20932 | 38072 ft | 452 kts | 277° |
| 2026-04-18 09:00 | 60.80562 | 6.08250 | 38071 ft | 453 kts | 277° |
| 2026-04-18 09:00 | 60.81708 | 5.95559 | 38077 ft | 454 kts | 277° |
| 2026-04-18 09:01 | 60.82843 | 5.82843 | 38055 ft | 454 kts | 277° |
| 2026-04-18 09:01 | 60.83966 | 5.70104 | 38060 ft | 455 kts | 277° |
| 2026-04-18 09:02 | 60.85082 | 5.57318 | 38060 ft | 455 kts | 277° |
| 2026-04-18 09:02 | 60.86183 | 5.44543 | 38044 ft | 455 kts | 277° |
| 2026-04-18 09:03 | 60.87272 | 5.31770 | 38060 ft | 454 kts | 276° |
| 2026-04-18 09:03 | 60.88348 | 5.18988 | 38064 ft | 455 kts | 276° |
| 2026-04-18 09:04 | 60.89368 | 5.06723 | 38045 ft | 457 kts | 276° |
| 2026-04-18 09:04 | 60.90426 | 4.93858 | 38045 ft | 457 kts | 276° |
| 2026-04-18 09:05 | 60.91473 | 4.80967 | 38042 ft | 458 kts | 276° |
| 2026-04-18 09:05 | 60.92503 | 4.68135 | 38038 ft | 458 kts | 276° |
| 2026-04-18 09:06 | 60.93533 | 4.55128 | 38033 ft | 458 kts | 276° |
| 2026-04-18 09:06 | 60.94538 | 4.42276 | 38032 ft | 458 kts | 275° |
| 2026-04-18 09:07 | 60.95538 | 4.29327 | 38029 ft | 458 kts | 275° |
| 2026-04-18 09:07 | 60.96525 | 4.16373 | 38026 ft | 458 kts | 275° |
| 2026-04-18 09:08 | 60.97499 | 4.03414 | 38024 ft | 458 kts | 275° |
| 2026-04-18 09:08 | 60.98461 | 3.90454 | 38008 ft | 458 kts | 275° |
| 2026-04-18 09:09 | 60.99410 | 3.77488 | 37987 ft | 458 kts | 275° |
| 2026-04-18 09:09 | 61.00345 | 3.64523 | 37980 ft | 457 kts | 275° |
| 2026-04-18 09:10 | 61.01268 | 3.51561 | 37972 ft | 457 kts | 275° |
| 2026-04-18 09:10 | 61.02179 | 3.38576 | 37970 ft | 457 kts | 274° |
| 2026-04-18 09:11 | 61.03077 | 3.25589 | 37974 ft | 458 kts | 274° |
| 2026-04-18 09:11 | 61.03964 | 3.12586 | 37973 ft | 458 kts | 274° |
| 2026-04-18 09:12 | 61.04838 | 2.99569 | 37973 ft | 458 kts | 274° |
| 2026-04-18 09:12 | 61.05700 | 2.86533 | 37970 ft | 458 kts | 274° |
| 2026-04-18 09:13 | 61.06551 | 2.73487 | 37963 ft | 459 kts | 274° |
| 2026-04-18 09:13 | 61.07389 | 2.60425 | 37951 ft | 459 kts | 274° |
| 2026-04-18 09:14 | 61.08214 | 2.47367 | 37947 ft | 459 kts | 274° |
| 2026-04-18 09:14 | 61.09027 | 2.34289 | 37937 ft | 458 kts | 274° |
| 2026-04-18 09:15 | 61.09823 | 2.21278 | 37925 ft | 458 kts | 273° |
| 2026-04-18 09:15 | 61.10609 | 2.08220 | 37922 ft | 458 kts | 273° |
| 2026-04-18 09:16 | 61.11382 | 1.95159 | 37912 ft | 457 kts | 274° |
| 2026-04-18 09:16 | 61.12141 | 1.82111 | 37927 ft | 457 kts | 274° |
| 2026-04-18 09:17 | 61.12888 | 1.69049 | 37910 ft | 457 kts | 273° |
| 2026-04-18 09:17 | 61.13623 | 1.55987 | 37909 ft | 457 kts | 274° |
| 2026-04-18 09:18 | 61.14346 | 1.42904 | 37904 ft | 457 kts | 273° |
| 2026-04-18 09:18 | 61.15056 | 1.29818 | 37904 ft | 458 kts | 273° |
| 2026-04-18 09:19 | 61.15754 | 1.16712 | 37897 ft | 458 kts | 273° |
| 2026-04-18 09:19 | 61.16439 | 1.03572 | 37886 ft | 459 kts | 273° |
| 2026-04-18 09:20 | 61.17110 | 0.90495 | 37884 ft | 460 kts | 273° |
| 2026-04-18 09:20 | 61.17774 | 0.77296 | 37887 ft | 461 kts | 273° |
| 2026-04-18 09:21 | 61.18427 | 0.64050 | 37879 ft | 462 kts | 273° |
| 2026-04-18 09:21 | 61.19069 | 0.50772 | 37874 ft | 464 kts | 272° |
| 2026-04-18 09:22 | 61.19697 | 0.37468 | 37870 ft | 464 kts | 272° |
| 2026-04-18 09:22 | 61.20315 | 0.24136 | 37859 ft | 465 kts | 272° |
| 2026-04-18 09:23 | 61.20923 | 0.10790 | 37857 ft | 464 kts | 272° |
| 2026-04-18 09:23 | 61.21983 | -0.02434 | 37850 ft | 469 kts | 284° |
| 2026-04-18 09:24 | 61.24544 | -0.14950 | 37846 ft | 472 kts | 292° |
| 2026-04-18 09:24 | 61.27340 | -0.27269 | 37838 ft | 471 kts | 292° |
| 2026-04-18 09:25 | 61.30101 | -0.39605 | 37826 ft | 470 kts | 291° |
| 2026-04-18 09:25 | 61.32812 | -0.51974 | 37823 ft | 469 kts | 291° |
| 2026-04-18 09:26 | 61.35491 | -0.64367 | 37817 ft | 469 kts | 291° |
| 2026-04-18 09:26 | 61.38154 | -0.76766 | 37814 ft | 468 kts | 291° |
| 2026-04-18 09:27 | 61.40803 | -0.89170 | 37807 ft | 468 kts | 290° |
| 2026-04-18 09:27 | 61.43438 | -1.01576 | 37803 ft | 467 kts | 290° |
| 2026-04-18 09:28 | 61.46044 | -1.13918 | 37792 ft | 467 kts | 290° |
| 2026-04-18 09:28 | 61.48654 | -1.26352 | 37794 ft | 467 kts | 290° |
| 2026-04-18 09:29 | 61.51251 | -1.38801 | 37786 ft | 467 kts | 290° |
| 2026-04-18 09:29 | 61.53840 | -1.51285 | 37780 ft | 467 kts | 290° |
| 2026-04-18 09:30 | 61.56419 | -1.63796 | 37775 ft | 467 kts | 290° |
| 2026-04-18 09:30 | 61.58987 | -1.76330 | 37770 ft | 467 kts | 290° |
| 2026-04-18 09:31 | 61.61542 | -1.88881 | 37770 ft | 468 kts | 290° |
| 2026-04-18 09:31 | 61.64087 | -2.01464 | 37754 ft | 468 kts | 290° |
| 2026-04-18 09:32 | 61.66624 | -2.14069 | 37747 ft | 468 kts | 290° |
| 2026-04-18 09:32 | 61.69149 | -2.26699 | 37751 ft | 467 kts | 290° |
| 2026-04-18 09:33 | 61.71657 | -2.39327 | 37746 ft | 467 kts | 290° |
| 2026-04-18 09:33 | 61.74153 | -2.51983 | 37735 ft | 467 kts | 289° |
| 2026-04-18 09:34 | 61.76641 | -2.64663 | 37740 ft | 467 kts | 290° |
| 2026-04-18 09:34 | 61.79116 | -2.77356 | 37725 ft | 467 kts | 289° |
| 2026-04-18 09:35 | 61.81576 | -2.90050 | 37719 ft | 466 kts | 289° |
| 2026-04-18 09:35 | 61.84018 | -3.02756 | 37712 ft | 466 kts | 289° |
| 2026-04-18 09:36 | 61.86448 | -3.15479 | 37707 ft | 466 kts | 289° |
| 2026-04-18 09:36 | 61.88867 | -3.28203 | 37701 ft | 465 kts | 289° |
| 2026-04-18 09:37 | 61.91271 | -3.40940 | 37694 ft | 465 kts | 288° |
| 2026-04-18 09:37 | 61.93666 | -3.53692 | 37686 ft | 465 kts | 289° |
| 2026-04-18 09:38 | 61.96046 | -3.66461 | 37688 ft | 465 kts | 288° |
| 2026-04-18 09:38 | 61.98397 | -3.79177 | 37681 ft | 465 kts | 289° |
| 2026-04-18 09:39 | 62.00769 | -3.92079 | 37675 ft | 465 kts | 289° |
| 2026-04-18 09:39 | 62.03098 | -4.04831 | 37675 ft | 465 kts | 289° |
| 2026-04-18 09:40 | 62.05433 | -4.17701 | 37672 ft | 465 kts | 288° |
| 2026-04-18 09:40 | 62.07758 | -4.30591 | 37668 ft | 465 kts | 288° |
| 2026-04-18 09:41 | 62.10067 | -4.43486 | 37663 ft | 465 kts | 288° |
| 2026-04-18 09:41 | 62.12366 | -4.56410 | 37661 ft | 465 kts | 288° |
| 2026-04-18 09:42 | 62.14652 | -4.69344 | 37654 ft | 465 kts | 288° |
| 2026-04-18 09:42 | 62.16924 | -4.82291 | 37655 ft | 465 kts | 288° |
| 2026-04-18 09:43 | 62.19183 | -4.95252 | 37651 ft | 464 kts | 288° |
| 2026-04-18 09:43 | 62.21421 | -5.08189 | 37649 ft | 464 kts | 288° |
| 2026-04-18 09:44 | 62.23290 | -5.19061 | 37646 ft | 464 kts | 288° |
| 2026-04-18 09:44 | 62.25508 | -5.32041 | 37649 ft | 463 kts | 288° |
| 2026-04-18 09:45 | 62.27714 | -5.45037 | 37641 ft | 464 kts | 288° |
| 2026-04-18 09:45 | 62.29897 | -5.57989 | 37645 ft | 463 kts | 288° |
| 2026-04-18 09:46 | 62.32078 | -5.71015 | 37642 ft | 463 kts | 288° |
| 2026-04-18 09:46 | 62.34245 | -5.84058 | 37642 ft | 463 kts | 288° |
| 2026-04-18 09:47 | 62.36400 | -5.97120 | 37644 ft | 463 kts | 288° |
| 2026-04-18 09:47 | 62.38544 | -6.10206 | 37642 ft | 463 kts | 288° |
| 2026-04-18 09:48 | 62.40680 | -6.23338 | 37644 ft | 464 kts | 288° |
| 2026-04-18 09:48 | 62.42802 | -6.36480 | 37649 ft | 465 kts | 287° |
| 2026-04-18 09:49 | 62.44917 | -6.49670 | 37640 ft | 465 kts | 287° |
| 2026-04-18 09:49 | 62.47019 | -6.62876 | 37637 ft | 465 kts | 287° |
| 2026-04-18 09:50 | 62.49111 | -6.76121 | 37641 ft | 465 kts | 287° |
| 2026-04-18 09:50 | 62.51188 | -6.89364 | 37634 ft | 465 kts | 287° |
| 2026-04-18 09:51 | 62.53252 | -7.02625 | 37636 ft | 465 kts | 287° |
| 2026-04-18 09:51 | 62.55303 | -7.15899 | 37636 ft | 465 kts | 287° |
| 2026-04-18 09:52 | 62.57344 | -7.29211 | 37638 ft | 465 kts | 287° |
| 2026-04-18 09:52 | 62.59368 | -7.42515 | 37635 ft | 464 kts | 287° |
| 2026-04-18 09:53 | 62.61379 | -7.55833 | 37639 ft | 464 kts | 287° |
| 2026-04-18 09:53 | 62.63377 | -7.69166 | 37644 ft | 464 kts | 287° |
| 2026-04-18 09:54 | 62.65352 | -7.82447 | 37650 ft | 464 kts | 286° |
| 2026-04-18 09:54 | 62.67324 | -7.95810 | 37657 ft | 464 kts | 286° |
| 2026-04-18 09:55 | 62.69283 | -8.09191 | 37660 ft | 464 kts | 286° |
| 2026-04-18 09:55 | 62.71230 | -8.22588 | 37662 ft | 464 kts | 286° |
| 2026-04-18 09:56 | 62.73163 | -8.36003 | 37664 ft | 464 kts | 286° |
| 2026-04-18 09:56 | 62.75087 | -8.49456 | 37669 ft | 464 kts | 286° |
| 2026-04-18 09:57 | 62.76994 | -8.62903 | 37669 ft | 464 kts | 285° |
| 2026-04-18 09:57 | 62.78888 | -8.76365 | 37673 ft | 464 kts | 285° |
| 2026-04-18 09:58 | 62.80770 | -8.89846 | 37677 ft | 464 kts | 285° |
| 2026-04-18 09:58 | 62.82642 | -9.03371 | 37682 ft | 464 kts | 285° |
| 2026-04-18 09:59 | 62.84498 | -9.16890 | 37676 ft | 464 kts | 285° |
| 2026-04-18 10:00 | 62.87259 | -9.37206 | 37683 ft | 464 kts | 285° |
| 2026-04-18 10:00 | 62.89082 | -9.50758 | 37688 ft | 464 kts | 285° |
| 2026-04-18 10:01 | 62.90891 | -9.64321 | 37688 ft | 463 kts | 284° |
| 2026-04-18 10:01 | 62.92685 | -9.77894 | 37686 ft | 463 kts | 284° |
| 2026-04-18 10:02 | 62.94467 | -9.91500 | 37693 ft | 463 kts | 284° |
| 2026-04-18 10:02 | 62.96235 | -10.05088 | 37694 ft | 463 kts | 284° |
| 2026-04-18 10:03 | 62.97988 | -10.18685 | 37702 ft | 462 kts | 283° |
| 2026-04-18 10:03 | 62.99728 | -10.32294 | 37714 ft | 463 kts | 283° |
| 2026-04-18 10:04 | 63.01461 | -10.45997 | 37709 ft | 464 kts | 283° |
| 2026-04-18 10:04 | 63.03177 | -10.59675 | 37719 ft | 463 kts | 283° |
| 2026-04-18 10:05 | 63.04877 | -10.73359 | 37727 ft | 464 kts | 282° |
| 2026-04-18 10:05 | 63.06573 | -10.87098 | 37710 ft | 464 kts | 283° |
| 2026-04-18 10:06 | 63.08250 | -11.00824 | 37717 ft | 463 kts | 283° |
| 2026-04-18 10:06 | 63.09912 | -11.14534 | 37728 ft | 462 kts | 282° |
| 2026-04-18 10:07 | 63.11543 | -11.28127 | 37748 ft | 460 kts | 283° |
| 2026-04-18 10:07 | 63.13170 | -11.41797 | 37750 ft | 459 kts | 283° |
| 2026-04-18 10:08 | 63.14780 | -11.55447 | 37756 ft | 458 kts | 282° |
| 2026-04-18 10:08 | 63.16376 | -11.69104 | 37759 ft | 458 kts | 282° |
| 2026-04-18 10:09 | 63.17951 | -11.82754 | 37768 ft | 457 kts | 282° |
| 2026-04-18 10:09 | 63.19514 | -11.96412 | 37771 ft | 457 kts | 281° |
| 2026-04-18 10:10 | 63.21063 | -12.10085 | 37772 ft | 458 kts | 282° |
| 2026-04-18 10:10 | 63.22598 | -12.23740 | 37779 ft | 458 kts | 282° |
| 2026-04-18 10:11 | 63.24125 | -12.37457 | 37778 ft | 459 kts | 282° |
| 2026-04-18 10:11 | 63.25644 | -12.51232 | 37783 ft | 460 kts | 282° |
| 2026-04-18 10:12 | 63.27151 | -12.65043 | 37796 ft | 461 kts | 282° |
| 2026-04-18 10:12 | 63.28650 | -12.78911 | 37787 ft | 462 kts | 282° |
| 2026-04-18 10:13 | 63.30136 | -12.92803 | 37795 ft | 462 kts | 281° |
| 2026-04-18 10:13 | 63.31610 | -13.06725 | 37797 ft | 462 kts | 281° |
| 2026-04-18 10:14 | 63.33071 | -13.20658 | 37796 ft | 462 kts | 281° |
| 2026-04-18 10:14 | 63.34518 | -13.34609 | 37796 ft | 462 kts | 281° |
| 2026-04-18 10:15 | 63.35950 | -13.48565 | 37798 ft | 462 kts | 281° |
| 2026-04-18 10:15 | 63.37370 | -13.62541 | 37804 ft | 462 kts | 281° |
| 2026-04-18 10:16 | 63.38773 | -13.76502 | 37807 ft | 461 kts | 281° |
| 2026-04-18 10:16 | 63.40162 | -13.90475 | 37806 ft | 461 kts | 280° |
| 2026-04-18 10:17 | 63.41534 | -14.04431 | 37809 ft | 460 kts | 280° |
| 2026-04-18 10:17 | 63.42885 | -14.18312 | 37810 ft | 460 kts | 280° |
| 2026-04-18 10:18 | 63.44227 | -14.32267 | 37813 ft | 460 kts | 280° |
| 2026-04-18 10:18 | 63.45557 | -14.46237 | 37817 ft | 459 kts | 279° |
| 2026-04-18 10:19 | 63.46872 | -14.60212 | 37816 ft | 459 kts | 279° |
| 2026-04-18 10:19 | 63.48171 | -14.74178 | 37818 ft | 459 kts | 279° |
| 2026-04-18 10:20 | 63.49456 | -14.88153 | 37825 ft | 458 kts | 279° |
| 2026-04-18 10:20 | 63.50728 | -15.02142 | 37820 ft | 458 kts | 279° |
| 2026-04-18 10:21 | 63.51985 | -15.16131 | 37817 ft | 458 kts | 279° |
| 2026-04-18 10:21 | 63.53229 | -15.30144 | 37830 ft | 458 kts | 279° |
| 2026-04-18 10:22 | 63.54461 | -15.44179 | 37826 ft | 459 kts | 279° |
| 2026-04-18 10:22 | 63.55679 | -15.58226 | 37832 ft | 459 kts | 278° |
| 2026-04-18 10:23 | 63.56883 | -15.72289 | 37828 ft | 459 kts | 278° |
| 2026-04-18 10:23 | 63.58074 | -15.86366 | 37824 ft | 459 kts | 278° |
| 2026-04-18 10:24 | 63.59252 | -16.00459 | 37828 ft | 459 kts | 278° |
| 2026-04-18 10:24 | 63.60416 | -16.14571 | 37829 ft | 459 kts | 278° |
| 2026-04-18 10:25 | 63.61567 | -16.28699 | 37824 ft | 459 kts | 278° |
| 2026-04-18 10:25 | 63.62703 | -16.42830 | 37831 ft | 459 kts | 278° |
| 2026-04-18 10:26 | 63.63825 | -16.56967 | 37833 ft | 459 kts | 278° |
| 2026-04-18 10:26 | 63.64933 | -16.71109 | 37832 ft | 459 kts | 277° |
| 2026-04-18 10:27 | 63.66018 | -16.85158 | 37833 ft | 459 kts | 277° |
| 2026-04-18 10:27 | 63.67098 | -16.99319 | 37839 ft | 458 kts | 277° |
| 2026-04-18 10:28 | 63.68162 | -17.13470 | 37848 ft | 458 kts | 277° |
| 2026-04-18 10:28 | 63.69212 | -17.27620 | 37846 ft | 458 kts | 277° |
| 2026-04-18 10:29 | 63.70248 | -17.41786 | 37854 ft | 458 kts | 277° |
| 2026-04-18 10:29 | 63.71269 | -17.55955 | 37863 ft | 458 kts | 277° |
| 2026-04-18 10:30 | 63.72107 | -17.67736 | 37876 ft | 457 kts | 276° |
| 2026-04-18 10:30 | 63.73103 | -17.81921 | 37879 ft | 458 kts | 276° |
| 2026-04-18 10:31 | 63.74085 | -17.96110 | 37893 ft | 458 kts | 276° |
| 2026-04-18 10:31 | 63.75054 | -18.10334 | 37896 ft | 458 kts | 276° |
| 2026-04-18 10:32 | 63.76007 | -18.24542 | 37911 ft | 457 kts | 276° |
| 2026-04-18 10:32 | 63.76947 | -18.38764 | 37922 ft | 457 kts | 276° |
| 2026-04-18 10:33 | 63.77872 | -18.52988 | 37928 ft | 458 kts | 276° |
| 2026-04-18 10:33 | 63.78785 | -18.67239 | 37940 ft | 458 kts | 275° |
| 2026-04-18 10:34 | 63.79683 | -18.81491 | 37941 ft | 458 kts | 275° |
| 2026-04-18 10:34 | 63.80567 | -18.95763 | 37954 ft | 457 kts | 275° |
| 2026-04-18 10:35 | 63.81436 | -19.10017 | 37962 ft | 457 kts | 275° |
| 2026-04-18 10:35 | 63.82290 | -19.24273 | 37979 ft | 457 kts | 275° |
| 2026-04-18 10:36 | 63.83125 | -19.38432 | 37981 ft | 457 kts | 275° |
| 2026-04-18 10:36 | 63.83951 | -19.52704 | 37979 ft | 456 kts | 275° |
| 2026-04-18 10:37 | 63.84762 | -19.66970 | 37987 ft | 456 kts | 275° |
| 2026-04-18 10:37 | 63.85559 | -19.81228 | 37994 ft | 456 kts | 274° |
| 2026-04-18 10:38 | 63.86342 | -19.95516 | 37987 ft | 457 kts | 274° |
| 2026-04-18 10:38 | 63.87112 | -20.09806 | 37993 ft | 457 kts | 274° |
| 2026-04-18 10:39 | 63.87867 | -20.24115 | 37998 ft | 457 kts | 274° |
| 2026-04-18 10:39 | 63.88609 | -20.38430 | 37998 ft | 457 kts | 274° |
| 2026-04-18 10:40 | 63.89336 | -20.52754 | 38005 ft | 457 kts | 274° |
| 2026-04-18 10:40 | 63.90049 | -20.67079 | 38008 ft | 457 kts | 274° |
| 2026-04-18 10:41 | 63.90748 | -20.81426 | 37994 ft | 457 kts | 273° |
| 2026-04-18 10:41 | 63.91433 | -20.95771 | 38008 ft | 457 kts | 273° |
| 2026-04-18 10:42 | 63.92104 | -21.10124 | 38006 ft | 457 kts | 273° |
| 2026-04-18 10:42 | 63.92761 | -21.24488 | 38016 ft | 457 kts | 273° |
| 2026-04-18 10:43 | 63.93402 | -21.38840 | 38021 ft | 457 kts | 273° |
| 2026-04-18 10:43 | 63.94031 | -21.53214 | 38007 ft | 457 kts | 272° |
| 2026-04-18 10:44 | 63.94645 | -21.67598 | 38014 ft | 457 kts | 272° |
| 2026-04-18 10:44 | 63.95245 | -21.81996 | 38003 ft | 457 kts | 272° |
| 2026-04-18 10:45 | 63.95832 | -21.96414 | 37997 ft | 457 kts | 272° |
| 2026-04-18 10:45 | 63.96403 | -22.10803 | 38006 ft | 457 kts | 272° |
| 2026-04-18 10:46 | 63.96960 | -22.25206 | 38007 ft | 457 kts | 272° |
| 2026-04-18 10:46 | 63.97502 | -22.39599 | 37997 ft | 456 kts | 272° |
| 2026-04-18 10:47 | 63.98033 | -22.54005 | 37999 ft | 457 kts | 271° |
| 2026-04-18 10:47 | 63.99284 | -22.68233 | 37994 ft | 463 kts | 287° |
| 2026-04-18 10:48 | 64.01578 | -22.81989 | 37998 ft | 464 kts | 288° |
| 2026-04-18 10:48 | 64.03913 | -22.95704 | 38005 ft | 464 kts | 288° |
| 2026-04-18 10:49 | 64.06207 | -23.09497 | 38009 ft | 465 kts | 287° |
| 2026-04-18 10:49 | 64.08460 | -23.23332 | 38022 ft | 465 kts | 287° |
| 2026-04-18 10:50 | 64.10693 | -23.37212 | 38024 ft | 465 kts | 287° |
| 2026-04-18 10:50 | 64.12915 | -23.51134 | 38014 ft | 466 kts | 287° |
| 2026-04-18 10:51 | 64.15127 | -23.65086 | 38016 ft | 466 kts | 287° |
| 2026-04-18 10:51 | 64.17327 | -23.79065 | 38016 ft | 466 kts | 287° |
| 2026-04-18 10:52 | 64.19502 | -23.92987 | 38015 ft | 467 kts | 287° |
| 2026-04-18 10:52 | 64.21679 | -24.07037 | 38015 ft | 467 kts | 286° |
| 2026-04-18 10:53 | 64.23843 | -24.21109 | 38015 ft | 467 kts | 286° |
| 2026-04-18 10:53 | 64.25994 | -24.35203 | 38011 ft | 467 kts | 286° |
| 2026-04-18 10:54 | 64.28131 | -24.49321 | 38005 ft | 467 kts | 286° |
| 2026-04-18 10:54 | 64.30254 | -24.63463 | 38004 ft | 467 kts | 286° |
| 2026-04-18 10:55 | 64.32365 | -24.77628 | 37999 ft | 467 kts | 285° |
| 2026-04-18 10:55 | 64.34464 | -24.91829 | 37998 ft | 467 kts | 285° |
| 2026-04-18 10:56 | 64.36547 | -25.06041 | 37996 ft | 467 kts | 285° |
| 2026-04-18 10:56 | 64.38617 | -25.20279 | 37989 ft | 467 kts | 285° |
| 2026-04-18 10:57 | 64.40674 | -25.34540 | 37986 ft | 468 kts | 285° |
| 2026-04-18 10:57 | 64.42718 | -25.48827 | 37985 ft | 468 kts | 285° |
| 2026-04-18 10:58 | 64.44734 | -25.63045 | 37980 ft | 468 kts | 285° |
| 2026-04-18 10:58 | 64.46751 | -25.77382 | 37977 ft | 468 kts | 285° |
| 2026-04-18 10:59 | 64.48758 | -25.91763 | 37974 ft | 469 kts | 284° |
| 2026-04-18 10:59 | 64.50751 | -26.06177 | 37970 ft | 469 kts | 284° |
| 2026-04-18 11:00 | 64.52731 | -26.20610 | 37966 ft | 469 kts | 284° |
| 2026-04-18 11:00 | 64.54698 | -26.35077 | 37964 ft | 470 kts | 284° |
| 2026-04-18 11:01 | 64.56651 | -26.49572 | 37960 ft | 470 kts | 284° |
| 2026-04-18 11:01 | 64.58592 | -26.64098 | 37956 ft | 470 kts | 284° |
| 2026-04-18 11:02 | 64.61482 | -26.85964 | 37953 ft | 471 kts | 284° |
| 2026-04-18 11:02 | 64.63393 | -27.00587 | 37948 ft | 471 kts | 284° |
| 2026-04-18 11:03 | 64.65275 | -27.15119 | 37943 ft | 471 kts | 283° |
| 2026-04-18 11:03 | 64.67156 | -27.29775 | 37941 ft | 471 kts | 283° |
| 2026-04-18 11:04 | 64.69023 | -27.44452 | 37935 ft | 471 kts | 283° |
| 2026-04-18 11:04 | 64.70876 | -27.59152 | 37930 ft | 471 kts | 283° |
| 2026-04-18 11:05 | 64.72713 | -27.73866 | 37929 ft | 471 kts | 283° |
| 2026-04-18 11:05 | 64.74535 | -27.88598 | 37922 ft | 471 kts | 283° |
| 2026-04-18 11:06 | 64.76342 | -28.03346 | 37919 ft | 471 kts | 283° |
| 2026-04-18 11:06 | 64.78136 | -28.18123 | 37918 ft | 471 kts | 283° |
| 2026-04-18 11:07 | 64.79916 | -28.32927 | 37916 ft | 471 kts | 282° |
| 2026-04-18 11:07 | 64.81680 | -28.47746 | 37907 ft | 471 kts | 282° |
| 2026-04-18 11:08 | 64.83430 | -28.62586 | 37901 ft | 472 kts | 282° |
| 2026-04-18 11:08 | 64.85166 | -28.77451 | 37907 ft | 472 kts | 282° |
| 2026-04-18 11:09 | 64.86888 | -28.92332 | 37903 ft | 472 kts | 282° |
| 2026-04-18 11:09 | 64.88596 | -29.07254 | 37887 ft | 472 kts | 282° |
| 2026-04-18 11:10 | 64.90278 | -29.22104 | 37882 ft | 472 kts | 282° |
| 2026-04-18 11:10 | 64.91968 | -29.37162 | 37884 ft | 472 kts | 281° |
| 2026-04-18 11:11 | 64.93632 | -29.52153 | 37873 ft | 473 kts | 281° |
| 2026-04-18 11:11 | 64.95283 | -29.67168 | 37877 ft | 473 kts | 281° |
| 2026-04-18 11:12 | 64.96906 | -29.82097 | 37875 ft | 473 kts | 281° |
| 2026-04-18 11:12 | 64.98525 | -29.97139 | 37872 ft | 473 kts | 281° |
| 2026-04-18 11:13 | 65.00130 | -30.12207 | 37867 ft | 473 kts | 281° |
| 2026-04-18 11:13 | 65.01721 | -30.27303 | 37864 ft | 473 kts | 281° |
| 2026-04-18 11:14 | 65.03032 | -30.39870 | 37857 ft | 473 kts | 281° |
| 2026-04-18 11:14 | 65.04595 | -30.54999 | 37857 ft | 473 kts | 280° |
| 2026-04-18 11:15 | 65.06141 | -30.70131 | 37853 ft | 473 kts | 280° |
| 2026-04-18 11:15 | 65.07672 | -30.85292 | 37844 ft | 473 kts | 280° |
| 2026-04-18 11:16 | 65.09187 | -31.00456 | 37841 ft | 473 kts | 280° |
| 2026-04-18 11:16 | 65.10687 | -31.15638 | 37838 ft | 473 kts | 279° |
| 2026-04-18 11:17 | 65.12172 | -31.30840 | 37831 ft | 472 kts | 279° |
| 2026-04-18 11:17 | 65.13640 | -31.46053 | 37832 ft | 473 kts | 279° |
| 2026-04-18 11:18 | 65.15094 | -31.61289 | 37829 ft | 472 kts | 279° |
| 2026-04-18 11:18 | 65.16532 | -31.76536 | 37822 ft | 473 kts | 279° |
| 2026-04-18 11:19 | 65.17955 | -31.91802 | 37815 ft | 472 kts | 279° |
| 2026-04-18 11:19 | 65.19362 | -32.07087 | 37815 ft | 473 kts | 279° |
| 2026-04-18 11:20 | 65.20754 | -32.22388 | 37814 ft | 473 kts | 278° |
| 2026-04-18 11:20 | 65.22131 | -32.37717 | 37808 ft | 473 kts | 278° |
| 2026-04-18 11:21 | 65.23491 | -32.53045 | 37802 ft | 473 kts | 278° |
| 2026-04-18 11:21 | 65.24828 | -32.68306 | 37795 ft | 473 kts | 278° |
| 2026-04-18 11:22 | 65.26157 | -32.83666 | 37797 ft | 473 kts | 278° |
| 2026-04-18 11:22 | 65.27472 | -32.99055 | 37792 ft | 473 kts | 278° |
| 2026-04-18 11:23 | 65.28770 | -33.14448 | 37790 ft | 473 kts | 277° |
| 2026-04-18 11:23 | 65.30052 | -33.29852 | 37792 ft | 473 kts | 277° |
| 2026-04-18 11:24 | 65.31318 | -33.45280 | 37788 ft | 473 kts | 277° |
| 2026-04-18 11:24 | 65.32569 | -33.60723 | 37782 ft | 473 kts | 277° |
| 2026-04-18 11:25 | 65.33805 | -33.76181 | 37777 ft | 473 kts | 277° |
| 2026-04-18 11:25 | 65.35025 | -33.91665 | 37772 ft | 473 kts | 277° |
| 2026-04-18 11:26 | 65.36229 | -34.07160 | 37772 ft | 473 kts | 277° |
| 2026-04-18 11:26 | 65.37417 | -34.22666 | 37766 ft | 473 kts | 277° |
| 2026-04-18 11:27 | 65.38590 | -34.38191 | 37761 ft | 473 kts | 276° |
| 2026-04-18 11:27 | 65.39748 | -34.53743 | 37766 ft | 473 kts | 276° |
| 2026-04-18 11:28 | 65.40890 | -34.69314 | 37763 ft | 474 kts | 276° |
| 2026-04-18 11:28 | 65.42017 | -34.84918 | 37752 ft | 474 kts | 276° |
| 2026-04-18 11:29 | 65.43127 | -35.00524 | 37748 ft | 474 kts | 276° |
| 2026-04-18 11:29 | 65.44222 | -35.16137 | 37747 ft | 473 kts | 276° |
| 2026-04-18 11:30 | 65.45299 | -35.31746 | 37754 ft | 473 kts | 276° |
| 2026-04-18 11:30 | 65.46358 | -35.47355 | 37741 ft | 473 kts | 275° |
| 2026-04-18 11:31 | 65.47401 | -35.62970 | 37745 ft | 473 kts | 275° |
| 2026-04-18 11:31 | 65.48422 | -35.78490 | 37724 ft | 473 kts | 275° |
| 2026-04-18 11:32 | 65.49432 | -35.94098 | 37732 ft | 471 kts | 274° |
| 2026-04-18 11:32 | 65.50422 | -36.09675 | 37733 ft | 470 kts | 274° |
| 2026-04-18 11:33 | 65.51393 | -36.25217 | 37728 ft | 468 kts | 274° |
| 2026-04-18 11:33 | 65.52347 | -36.40738 | 37721 ft | 468 kts | 274° |
| 2026-04-18 11:34 | 65.53283 | -36.56251 | 37724 ft | 467 kts | 274° |
| 2026-04-18 11:34 | 65.54203 | -36.71762 | 37722 ft | 467 kts | 274° |
| 2026-04-18 11:35 | 65.55108 | -36.87290 | 37726 ft | 467 kts | 273° |
| 2026-04-18 11:35 | 65.56000 | -37.02845 | 37725 ft | 468 kts | 273° |
| 2026-04-18 11:36 | 65.56903 | -37.18427 | 37720 ft | 470 kts | 276° |
| 2026-04-18 11:36 | 65.58823 | -37.33653 | 37732 ft | 477 kts | 286° |
| 2026-04-18 11:37 | 65.61189 | -37.48665 | 37725 ft | 478 kts | 287° |
| 2026-04-18 11:37 | 65.63539 | -37.63735 | 37713 ft | 479 kts | 286° |
| 2026-04-18 11:38 | 65.65833 | -37.78889 | 37717 ft | 479 kts | 286° |
| 2026-04-18 11:38 | 65.68095 | -37.94108 | 37699 ft | 480 kts | 285° |
| 2026-04-18 11:39 | 65.70342 | -38.09368 | 37707 ft | 480 kts | 285° |
| 2026-04-18 11:39 | 65.72577 | -38.24659 | 37717 ft | 480 kts | 285° |
| 2026-04-18 11:40 | 65.74781 | -38.39865 | 37710 ft | 480 kts | 285° |
| 2026-04-18 11:40 | 65.76986 | -38.55207 | 37719 ft | 480 kts | 285° |
| 2026-04-18 11:41 | 65.79176 | -38.70577 | 37709 ft | 480 kts | 285° |
| 2026-04-18 11:41 | 65.81351 | -38.85972 | 37712 ft | 480 kts | 285° |
| 2026-04-18 11:42 | 65.83507 | -39.01377 | 37712 ft | 480 kts | 285° |
| 2026-04-18 11:42 | 65.85649 | -39.16812 | 37715 ft | 480 kts | 284° |
| 2026-04-18 11:43 | 65.87774 | -39.32266 | 37710 ft | 480 kts | 284° |
| 2026-04-18 11:43 | 65.89878 | -39.47701 | 37703 ft | 479 kts | 284° |
| 2026-04-18 11:44 | 65.91973 | -39.63210 | 37708 ft | 479 kts | 284° |
| 2026-04-18 11:44 | 65.94048 | -39.78715 | 37706 ft | 479 kts | 284° |
| 2026-04-18 11:45 | 65.96109 | -39.94238 | 37710 ft | 479 kts | 284° |
| 2026-04-18 11:45 | 65.98154 | -40.09821 | 37710 ft | 479 kts | 283° |
| 2026-04-18 11:46 | 66.00176 | -40.25420 | 37712 ft | 480 kts | 283° |
| 2026-04-18 11:46 | 66.02184 | -40.41057 | 37708 ft | 480 kts | 283° |
| 2026-04-18 11:47 | 66.04180 | -40.56737 | 37707 ft | 481 kts | 283° |
| 2026-04-18 11:47 | 66.06166 | -40.72483 | 37710 ft | 481 kts | 283° |
| 2026-04-18 11:48 | 66.08134 | -40.88237 | 37708 ft | 482 kts | 283° |
| 2026-04-18 11:48 | 66.10087 | -41.04027 | 37706 ft | 482 kts | 283° |
| 2026-04-18 11:49 | 66.12026 | -41.19850 | 37703 ft | 482 kts | 283° |
| 2026-04-18 11:49 | 66.13949 | -41.35705 | 37714 ft | 482 kts | 283° |
| 2026-04-18 11:50 | 66.15846 | -41.51507 | 37708 ft | 482 kts | 283° |
| 2026-04-18 11:50 | 66.17740 | -41.67435 | 37703 ft | 483 kts | 283° |
| 2026-04-18 11:51 | 66.19616 | -41.83377 | 37696 ft | 482 kts | 282° |
| 2026-04-18 11:51 | 66.21474 | -41.99333 | 37695 ft | 482 kts | 282° |
| 2026-04-18 11:52 | 66.23316 | -42.15311 | 37690 ft | 482 kts | 282° |
| 2026-04-18 11:52 | 66.25142 | -42.31318 | 37683 ft | 482 kts | 282° |
| 2026-04-18 11:53 | 66.26950 | -42.47332 | 37686 ft | 482 kts | 282° |
| 2026-04-18 11:53 | 66.28740 | -42.63359 | 37678 ft | 482 kts | 282° |
| 2026-04-18 11:54 | 66.30514 | -42.79417 | 37678 ft | 482 kts | 282° |
| 2026-04-18 11:54 | 66.32271 | -42.95485 | 37669 ft | 482 kts | 282° |
| 2026-04-18 11:55 | 66.34011 | -43.11574 | 37667 ft | 481 kts | 282° |
| 2026-04-18 11:55 | 66.35737 | -43.27715 | 37667 ft | 481 kts | 282° |
| 2026-04-18 11:56 | 66.37444 | -43.43851 | 37666 ft | 482 kts | 282° |
| 2026-04-18 11:56 | 66.39134 | -43.60008 | 37666 ft | 482 kts | 282° |
| 2026-04-18 11:57 | 66.40807 | -43.76186 | 37668 ft | 481 kts | 282° |
| 2026-04-18 11:57 | 66.42464 | -43.92392 | 37667 ft | 481 kts | 282° |
| 2026-04-18 11:58 | 66.44103 | -44.08611 | 37670 ft | 482 kts | 281° |
| 2026-04-18 11:58 | 66.45726 | -44.24850 | 37672 ft | 482 kts | 281° |
| 2026-04-18 11:59 | 66.47322 | -44.41020 | 37674 ft | 482 kts | 281° |
| 2026-04-18 11:59 | 66.48912 | -44.57309 | 37679 ft | 482 kts | 281° |
| 2026-04-18 12:00 | 66.50485 | -44.73628 | 37676 ft | 482 kts | 281° |
| 2026-04-18 12:00 | 66.51790 | -44.87313 | 37680 ft | 482 kts | 281° |
| 2026-04-18 12:01 | 66.54098 | -45.11866 | 37683 ft | 482 kts | 281° |
| 2026-04-18 12:02 | 66.55608 | -45.28181 | 37679 ft | 482 kts | 281° |
| 2026-04-18 12:02 | 66.57107 | -45.44589 | 37677 ft | 482 kts | 281° |
| 2026-04-18 12:03 | 66.58589 | -45.61014 | 37672 ft | 482 kts | 281° |
| 2026-04-18 12:03 | 66.60054 | -45.77457 | 37674 ft | 482 kts | 280° |
| 2026-04-18 12:04 | 66.61502 | -45.93919 | 37670 ft | 482 kts | 280° |
| 2026-04-18 12:04 | 66.62934 | -46.10417 | 37656 ft | 482 kts | 280° |
| 2026-04-18 12:05 | 66.64354 | -46.27007 | 36879 ft | 489 kts | 280° |
| 2026-04-18 12:05 | 66.65062 | -46.35354 | 36223 ft | 486 kts | 280° |
| 2026-04-18 12:05 | 66.65764 | -46.43688 | 35489 ft | 485 kts | 281° |
| 2026-04-18 12:05 | 66.66459 | -46.52003 | 34682 ft | 485 kts | 281° |
| 2026-04-18 12:06 | 66.67151 | -46.60338 | 33910 ft | 485 kts | 282° |
| 2026-04-18 12:06 | 66.67837 | -46.68651 | 32911 ft | 486 kts | 282° |
| 2026-04-18 12:06 | 66.68520 | -46.76976 | 32153 ft | 482 kts | 282° |
| 2026-04-18 12:06 | 66.69198 | -46.85279 | 31072 ft | 485 kts | 282° |
| 2026-04-18 12:07 | 66.69871 | -46.93608 | 30155 ft | 485 kts | 282° |
| 2026-04-18 12:07 | 66.70538 | -47.01936 | 29311 ft | 481 kts | 282° |
| 2026-04-18 12:07 | 66.71193 | -47.10180 | 28569 ft | 473 kts | 282° |
| 2026-04-18 12:07 | 66.71830 | -47.18276 | 27869 ft | 465 kts | 283° |
| 2026-04-18 12:08 | 66.72452 | -47.26211 | 27221 ft | 457 kts | 283° |
| 2026-04-18 12:08 | 66.73059 | -47.34011 | 26580 ft | 449 kts | 283° |
| 2026-04-18 12:08 | 66.73654 | -47.41714 | 25928 ft | 442 kts | 283° |
| 2026-04-18 12:08 | 66.74236 | -47.49284 | 25307 ft | 436 kts | 284° |
| 2026-04-18 12:09 | 66.74810 | -47.56797 | 24688 ft | 431 kts | 284° |
| 2026-04-18 12:09 | 66.75371 | -47.64199 | 24095 ft | 425 kts | 285° |
| 2026-04-18 12:09 | 66.75923 | -47.71515 | 23495 ft | 420 kts | 285° |
| 2026-04-18 12:09 | 66.76465 | -47.78752 | 22827 ft | 416 kts | 285° |
| 2026-04-18 12:10 | 66.76998 | -47.85901 | 22174 ft | 410 kts | 285° |
| 2026-04-18 12:10 | 66.77519 | -47.92933 | 21596 ft | 403 kts | 284° |
| 2026-04-18 12:10 | 66.78028 | -47.99861 | 21017 ft | 396 kts | 284° |
| 2026-04-18 12:10 | 66.78525 | -48.06666 | 20471 ft | 390 kts | 284° |
| 2026-04-18 12:11 | 66.79012 | -48.13375 | 19919 ft | 384 kts | 284° |
| 2026-04-18 12:11 | 66.79484 | -48.19909 | 19381 ft | 379 kts | 283° |
| 2026-04-18 12:11 | 66.79953 | -48.26439 | 18831 ft | 374 kts | 283° |
| 2026-04-18 12:11 | 66.80413 | -48.32882 | 18304 ft | 370 kts | 283° |
| 2026-04-18 12:12 | 66.80866 | -48.39271 | 17737 ft | 366 kts | 283° |
| 2026-04-18 12:12 | 66.81310 | -48.45571 | 17192 ft | 360 kts | 282° |
| 2026-04-18 12:12 | 66.81745 | -48.51792 | 16670 ft | 355 kts | 282° |
| 2026-04-18 12:12 | 66.82172 | -48.57918 | 16145 ft | 351 kts | 282° |
| 2026-04-18 12:13 | 66.82592 | -48.63986 | 15655 ft | 347 kts | 282° |
| 2026-04-18 12:13 | 66.83004 | -48.69978 | 15157 ft | 343 kts | 282° |
| 2026-04-18 12:13 | 66.83411 | -48.75928 | 14656 ft | 341 kts | 282° |
| 2026-04-18 12:13 | 66.83815 | -48.81857 | 14167 ft | 342 kts | 281° |
| 2026-04-18 12:14 | 66.84221 | -48.87853 | 13660 ft | 346 kts | 281° |
| 2026-04-18 12:14 | 66.84630 | -48.93908 | 13103 ft | 350 kts | 281° |
| 2026-04-18 12:14 | 66.85038 | -49.00008 | 12580 ft | 350 kts | 280° |
| 2026-04-18 12:14 | 66.85439 | -49.06059 | 12073 ft | 345 kts | 280° |
| 2026-04-18 12:15 | 66.85828 | -49.11986 | 11715 ft | 336 kts | 279° |
| 2026-04-18 12:15 | 66.86207 | -49.17804 | 11248 ft | 332 kts | 279° |
| 2026-04-18 12:15 | 66.86582 | -49.23590 | 10722 ft | 330 kts | 279° |
| 2026-04-18 12:15 | 66.86952 | -49.29334 | 10269 ft | 327 kts | 279° |
| 2026-04-18 12:16 | 66.87311 | -49.34914 | 10140 ft | 314 kts | 278° |
| 2026-04-18 12:16 | 66.87655 | -49.40306 | 9990 ft | 303 kts | 278° |
| 2026-04-18 12:16 | 66.87986 | -49.45492 | 9860 ft | 292 kts | 278° |
| 2026-04-18 12:16 | 66.88304 | -49.50505 | 9741 ft | 282 kts | 278° |
| 2026-04-18 12:17 | 66.88608 | -49.55354 | 9613 ft | 273 kts | 278° |
| 2026-04-18 12:17 | 66.88904 | -49.60104 | 9305 ft | 270 kts | 278° |
| 2026-04-18 12:17 | 66.89284 | -49.64757 | 9017 ft | 268 kts | 292° |
| 2026-04-18 12:17 | 66.90349 | -49.68606 | 8747 ft | 269 kts | 320° |
| 2026-04-18 12:18 | 66.91949 | -49.71030 | 8501 ft | 269 kts | 337° |
| 2026-04-18 12:18 | 66.93674 | -49.72889 | 8233 ft | 269 kts | 339° |
| 2026-04-18 12:18 | 66.95396 | -49.74677 | 7952 ft | 266 kts | 339° |
| 2026-04-18 12:18 | 66.97101 | -49.76453 | 7685 ft | 263 kts | 339° |
| 2026-04-18 12:19 | 66.98789 | -49.78232 | 7417 ft | 261 kts | 339° |
| 2026-04-18 12:19 | 67.00454 | -49.80004 | 7217 ft | 256 kts | 339° |
| 2026-04-18 12:19 | 67.02093 | -49.81758 | 6935 ft | 254 kts | 338° |
| 2026-04-18 12:19 | 67.03714 | -49.83503 | 6652 ft | 252 kts | 338° |
| 2026-04-18 12:20 | 67.05332 | -49.85249 | 6365 ft | 251 kts | 338° |
| 2026-04-18 12:20 | 67.06916 | -49.86965 | 6089 ft | 250 kts | 338° |
| 2026-04-18 12:20 | 67.08516 | -49.88703 | 5781 ft | 249 kts | 338° |
| 2026-04-18 12:20 | 67.10105 | -49.90431 | 5491 ft | 247 kts | 338° |
| 2026-04-18 12:21 | 67.11663 | -49.92362 | 5176 ft | 247 kts | 324° |
| 2026-04-18 12:21 | 67.12701 | -49.95775 | 4955 ft | 244 kts | 292° |
| 2026-04-18 12:21 | 67.12908 | -50.00002 | 4756 ft | 246 kts | 263° |
| 2026-04-18 12:21 | 67.12427 | -50.04211 | 4558 ft | 240 kts | 248° |
| 2026-04-18 12:22 | 67.11781 | -50.08072 | 4339 ft | 236 kts | 246° |
| 2026-04-18 12:22 | 67.11133 | -50.11855 | 4146 ft | 222 kts | 247° |
| 2026-04-18 12:22 | 67.10535 | -50.15401 | 3940 ft | 211 kts | 247° |
| 2026-04-18 12:22 | 67.09970 | -50.18770 | 3787 ft | 200 kts | 247° |
| 2026-04-18 12:23 | 67.09440 | -50.21943 | 3627 ft | 186 kts | 247° |
| 2026-04-18 12:23 | 67.08951 | -50.24889 | 3471 ft | 177 kts | 247° |
| 2026-04-18 12:23 | 67.08478 | -50.27738 | 3336 ft | 172 kts | 247° |
| 2026-04-18 12:23 | 67.08010 | -50.30559 | 3202 ft | 173 kts | 247° |
| 2026-04-18 12:24 | 67.07537 | -50.33404 | 3062 ft | 174 kts | 247° |
| 2026-04-18 12:24 | 67.07064 | -50.36250 | 2928 ft | 172 kts | 247° |
| 2026-04-18 12:24 | 67.06606 | -50.38998 | 2796 ft | 162 kts | 248° |
| 2026-04-18 12:24 | 67.06170 | -50.41616 | 2591 ft | 157 kts | 247° |
| 2026-04-18 12:25 | 67.05746 | -50.44156 | 2344 ft | 155 kts | 247° |
| 2026-04-18 12:25 | 67.05317 | -50.46734 | 2138 ft | 165 kts | 247° |
| 2026-04-18 12:25 | 67.04837 | -50.49616 | 1844 ft | 180 kts | 246° |
| 2026-04-18 12:25 | 67.04351 | -50.52513 | 1589 ft | 172 kts | 246° |
| 2026-04-18 12:26 | 67.03919 | -50.55102 | 1812 ft | 149 kts | 246° |
| 2026-04-18 12:26 | 67.03486 | -50.57678 | 2306 ft | 168 kts | 247° |
| 2026-04-18 12:26 | 67.03014 | -50.60477 | 2646 ft | 173 kts | 247° |
| 2026-04-18 12:26 | 67.02537 | -50.63301 | 2977 ft | 173 kts | 247° |
| 2026-04-18 12:27 | 67.02031 | -50.66285 | 3366 ft | 191 kts | 247° |
| 2026-04-18 12:27 | 67.01502 | -50.69447 | 3697 ft | 195 kts | 246° |
| 2026-04-18 12:27 | 67.00898 | -50.72572 | 4001 ft | 197 kts | 242° |
| 2026-04-18 12:27 | 67.00230 | -50.75697 | 3992 ft | 201 kts | 241° |
| 2026-04-18 12:28 | 66.99556 | -50.78819 | 3997 ft | 200 kts | 241° |
| 2026-04-18 12:28 | 66.98884 | -50.81927 | 3994 ft | 199 kts | 241° |
| 2026-04-18 12:28 | 66.98229 | -50.84995 | 3981 ft | 195 kts | 242° |
| 2026-04-18 12:28 | 66.97584 | -50.88047 | 4002 ft | 199 kts | 242° |
| 2026-04-18 12:29 | 66.96895 | -50.91298 | 4019 ft | 214 kts | 242° |
| 2026-04-18 12:29 | 66.96180 | -50.94672 | 4009 ft | 217 kts | 241° |
| 2026-04-18 12:29 | 66.95459 | -50.98070 | 4005 ft | 218 kts | 241° |
| 2026-04-18 12:29 | 66.94735 | -51.01475 | 3995 ft | 218 kts | 241° |
| 2026-04-18 12:30 | 66.94010 | -51.04881 | 4002 ft | 218 kts | 241° |
| 2026-04-18 12:30 | 66.93286 | -51.08278 | 4001 ft | 218 kts | 241° |
| 2026-04-18 12:30 | 66.92561 | -51.11676 | 4003 ft | 218 kts | 241° |
| 2026-04-18 12:30 | 66.91832 | -51.15073 | 4003 ft | 218 kts | 241° |
| 2026-04-18 12:31 | 66.91102 | -51.18461 | 4007 ft | 218 kts | 241° |
| 2026-04-18 12:31 | 66.90372 | -51.21841 | 4009 ft | 218 kts | 241° |
| 2026-04-18 12:31 | 66.89641 | -51.25208 | 4012 ft | 218 kts | 239° |
| 2026-04-18 12:31 | 66.88629 | -51.27960 | 4021 ft | 216 kts | 217° |
| 2026-04-18 12:32 | 66.87406 | -51.30184 | 4007 ft | 216 kts | 214° |
| 2026-04-18 12:32 | 66.86165 | -51.32347 | 4011 ft | 216 kts | 214° |
| 2026-04-18 12:32 | 66.84925 | -51.34494 | 4014 ft | 216 kts | 214° |
| 2026-04-18 12:32 | 66.83683 | -51.36638 | 4016 ft | 216 kts | 214° |
| 2026-04-18 12:33 | 66.82442 | -51.38777 | 4016 ft | 215 kts | 214° |
| 2026-04-18 12:33 | 66.81336 | -51.41179 | 3992 ft | 204 kts | 237° |
| 2026-04-18 12:33 | 66.80972 | -51.44454 | 4001 ft | 190 kts | 276° |
| 2026-04-18 12:33 | 66.81487 | -51.47432 | 4029 ft | 189 kts | 315° |
| 2026-04-18 12:34 | 66.82637 | -51.48920 | 4022 ft | 188 kts | 355° |
| 2026-04-18 12:34 | 66.83880 | -51.48204 | 4010 ft | 186 kts | 37° |
| 2026-04-18 12:34 | 66.84590 | -51.45585 | 4025 ft | 182 kts | 78° |
| 2026-04-18 12:34 | 66.84968 | -51.42530 | 3993 ft | 186 kts | 54° |
| 2026-04-18 12:35 | 66.85844 | -51.40104 | 4027 ft | 189 kts | 46° |
| 2026-04-18 12:35 | 66.86754 | -51.37680 | 4018 ft | 189 kts | 47° |
| 2026-04-18 12:35 | 66.87607 | -51.35141 | 4010 ft | 189 kts | 54° |
| 2026-04-18 12:35 | 66.88334 | -51.32405 | 3992 ft | 182 kts | 59° |
| 2026-04-18 12:36 | 66.88952 | -51.29721 | 3983 ft | 170 kts | 61° |
| 2026-04-18 12:36 | 66.89521 | -51.27087 | 4016 ft | 172 kts | 62° |
| 2026-04-18 12:36 | 66.90095 | -51.24362 | 3982 ft | 178 kts | 62° |
| 2026-04-18 12:36 | 66.90681 | -51.21554 | 3731 ft | 178 kts | 62° |
| 2026-04-18 12:37 | 66.91244 | -51.18845 | 3496 ft | 168 kts | 62° |
| 2026-04-18 12:37 | 66.91781 | -51.16263 | 3251 ft | 161 kts | 62° |
| 2026-04-18 12:37 | 66.92296 | -51.13785 | 3005 ft | 156 kts | 62° |
| 2026-04-18 12:37 | 66.92806 | -51.11334 | 2756 ft | 157 kts | 61° |
| 2026-04-18 12:38 | 66.93323 | -51.08849 | 2565 ft | 160 kts | 62° |
| 2026-04-18 12:38 | 66.93848 | -51.06330 | 2529 ft | 162 kts | 62° |
| 2026-04-18 12:38 | 66.94372 | -51.03819 | 2500 ft | 159 kts | 62° |
| 2026-04-18 12:38 | 66.94890 | -51.01334 | 2488 ft | 159 kts | 62° |
| 2026-04-18 12:39 | 66.95410 | -50.98846 | 2476 ft | 160 kts | 62° |
| 2026-04-18 12:39 | 66.95942 | -50.96304 | 2228 ft | 160 kts | 61° |
| 2026-04-18 12:39 | 66.96446 | -50.93895 | 1992 ft | 146 kts | 62° |
| 2026-04-18 12:39 | 66.96896 | -50.91749 | 1771 ft | 130 kts | 62° |
| 2026-04-18 12:40 | 66.97315 | -50.89748 | 1465 ft | 127 kts | 62° |
| 2026-04-18 12:40 | 66.97737 | -50.87733 | 1240 ft | 129 kts | 62° |
| 2026-04-18 12:40 | 66.98163 | -50.85707 | 1046 ft | 129 kts | 62° |
| 2026-04-18 12:40 | 66.98591 | -50.83669 | 924 ft | 131 kts | 62° |
| 2026-04-18 12:41 | 66.99020 | -50.81581 | 708 ft | 130 kts | 64° |
| 2026-04-18 12:41 | 66.99440 | -50.79617 | 698 ft | 126 kts | 62° |
| 2026-04-18 12:41 | 66.99867 | -50.77574 | 531 ft | 134 kts | 63° |
| 2026-04-18 12:41 | 67.00307 | -50.75506 | 249 ft | 130 kts | 61° |
| 2026-04-18 12:42 | 67.00709 | -50.73601 | 115 ft | 113 kts | 60° |
| 2026-04-18 12:42 | 67.00992 | -50.72230 | 132 ft | 63 kts | 62° |
| 2026-04-18 12:42 | 67.01181 | -50.71347 | 142 ft | 51 kts | 62° |
| 2026-04-18 12:42 | 67.01315 | -50.70719 | 150 ft | 29 kts | 61° |
| 2026-04-18 12:43 | 67.01358 | -50.70403 | 152 ft | 3 kts | 120° |
| 2026-04-18 12:43 | 67.01333 | -50.70371 | 153 ft | 5 kts | 159° |
| 2026-04-18 12:43 | 67.01301 | -50.70345 | 153 ft | 5 kts | 159° |
| 2026-04-18 12:43 | 67.01270 | -50.70326 | 153 ft | 5 kts | 163° |
| 2026-04-18 12:44 | 67.01211 | -50.70281 | 152 ft | 6 kts | 165° |
| 2026-04-18 12:44 | 67.01168 | -50.70251 | 152 ft | 6 kts | 160° |
| 2026-04-18 12:44 | 67.01164 | -50.70151 | 153 ft | 7 kts | 65° |
| 2026-04-18 12:44 | 67.01193 | -50.70006 | 154 ft | 13 kts | 63° |
| 2026-04-18 12:45 | 67.01228 | -50.69837 | 156 ft | 17 kts | 61° |
| 2026-04-18 12:45 | 67.01256 | -50.69612 | 158 ft | 8 kts | 111° |
| 2026-04-18 12:45 | 67.01226 | -50.69550 | 159 ft | 6 kts | 152° |
| 2026-04-18 12:45 | 67.01210 | -50.69529 | 159 ft | 0 kts | 152° |